Time;durP1;ratioP1;P1;durP2;ratioP2;P2;SDS_P1;SDS_P2;PMS_P1;PMS_P2;Temp;Humidity;BMP_temperature;BMP_pressure;BME280_temperature;BME280_humidity;BME280_pressure;Samples;Min_cycle;Max_cycle;Signal;HPM_P1;HPM_P2
2022/11/26 00:00:17;;;;;;;67.80;32.10;;;;;;;3.82;82.30;100720.63;126727;1293;98750;-73
2022/11/26 00:03:39;;;;;;;92.40;37.80;;;;;;;3.86;82.20;100723.55;126599;1288;98852;-75
2022/11/26 00:06:43;;;;;;;103.10;40.50;;;;;;;3.89;82.22;100724.70;126558;1298;98005;-75
2022/11/26 00:09:46;;;;;;;77.60;34.30;;;;;;;3.91;82.17;100725.84;126646;1279;97976;-75
2022/11/26 00:12:49;;;;;;;82.20;35.10;;;;;;;3.91;82.25;100720.38;126558;1281;98109;-75
2022/11/26 00:15:52;;;;;;;93.70;41.50;;;;;;;3.89;82.26;100720.35;126670;1281;99109;-75
2022/11/26 00:18:54;;;;;;;99.10;41.70;;;;;;;3.83;82.16;100728.13;126652;1283;98465;-74
2022/11/26 00:21:57;;;;;;;113.20;45.00;;;;;;;3.80;82.39;100726.42;126623;1281;98329;-75
2022/11/26 00:25:00;;;;;;;103.40;41.10;;;;;;;3.77;82.43;100722.53;126633;1284;98760;-76
2022/11/26 00:28:03;;;;;;;102.00;43.30;;;;;;;3.77;82.49;100722.02;126580;1291;101439;-74
2022/11/26 00:31:14;;;;;;;108.40;43.50;;;;;;;3.79;82.53;100729.60;126604;1274;98003;-75
2022/11/26 00:34:16;;;;;;;102.10;43.40;;;;;;;3.81;82.58;100738.29;126589;1280;98864;-74
2022/11/26 00:37:21;;;;;;;100.50;41.90;;;;;;;3.84;82.71;100741.65;126630;1274;98015;-75
2022/11/26 00:40:26;;;;;;;99.40;41.60;;;;;;;3.87;82.63;100738.45;126592;1286;98010;-75
2022/11/26 00:43:29;;;;;;;98.20;41.20;;;;;;;3.89;82.75;100733.39;126640;1283;98257;-74
2022/11/26 00:46:31;;;;;;;94.00;40.70;;;;;;;3.89;82.69;100741.99;126579;1284;99185;-73
2022/11/26 00:49:34;;;;;;;94.30;42.60;;;;;;;3.88;82.78;100741.18;126549;1297;99142;-74
2022/11/26 00:52:37;;;;;;;98.00;42.60;;;;;;;3.87;82.76;100742.48;126589;1279;98015;-75
2022/11/26 00:55:43;;;;;;;92.50;38.70;;;;;;;3.85;82.83;100742.74;126678;1282;99040;-76
2022/11/26 00:58:46;;;;;;;86.60;36.40;;;;;;;3.83;82.72;100745.17;126645;1281;99131;-75
2022/11/26 01:01:49;;;;;;;85.70;34.90;;;;;;;3.82;82.83;100750.70;126729;1277;98752;-74
2022/11/26 01:04:52;;;;;;;94.40;39.20;;;;;;;3.84;82.93;100750.96;126714;1281;99156;-75
2022/11/26 01:07:58;;;;;;;88.20;38.40;;;;;;;3.86;82.87;100750.26;126564;1280;98082;-74
2022/11/26 01:11:04;;;;;;;96.70;41.10;;;;;;;3.90;82.92;100756.91;126657;1288;98666;-74
2022/11/26 01:14:12;;;;;;;104.70;41.70;;;;;;;3.87;82.78;100756.73;126653;1282;98028;-72
2022/11/26 01:17:15;;;;;;;86.80;37.20;;;;;;;3.86;82.78;100756.94;126519;1288;99101;-73
2022/11/26 01:20:22;;;;;;;87.00;39.20;;;;;;;3.87;82.91;100753.56;126562;1283;98113;-71
2022/11/26 01:23:25;;;;;;;88.50;39.40;;;;;;;3.86;82.70;100750.64;126368;1286;169765;-73
2022/11/26 01:26:40;;;;;;;85.70;37.90;;;;;;;3.84;82.81;100755.88;126614;1282;97980;-72
2022/11/26 01:29:42;;;;;;;88.10;36.70;;;;;;;3.83;82.86;100761.42;126589;1281;98033;-73
2022/11/26 01:32:45;;;;;;;77.30;32.40;;;;;;;3.84;82.94;100765.35;126487;1283;99854;-74
2022/11/26 01:35:48;;;;;;;80.00;34.70;;;;;;;3.88;82.80;100768.44;126609;1282;98103;-74
2022/11/26 01:38:52;;;;;;;73.00;33.40;;;;;;;3.91;82.90;100771.80;126512;1281;98516;-73
2022/11/26 01:42:04;;;;;;;67.90;33.20;;;;;;;3.92;82.74;100768.17;126699;1285;98778;-74
2022/11/26 01:45:13;;;;;;;;;;;;;;;3.92;82.69;100765.38;126593;1281;98069;-75
2022/11/26 01:48:26;;;;;;;71.00;32.40;;;;;;;3.92;82.67;100763.10;126577;1278;97991;-75
2022/11/26 01:51:29;;;;;;;85.70;36.00;;;;;;;3.89;82.79;100767.89;127025;1291;98711;-74
2022/11/26 01:54:34;;;;;;;79.30;37.20;;;;;;;3.87;82.88;100768.73;126548;1287;99024;-75
2022/11/26 01:57:37;;;;;;;78.60;34.50;;;;;;;3.83;82.87;100765.63;126636;1274;97976;-73
2022/11/26 02:00:41;;;;;;;85.00;37.20;;;;;;;3.81;83.04;100771.55;126518;1281;98594;-74
2022/11/26 02:03:53;;;;;;;76.90;33.80;;;;;;;3.82;82.96;100773.23;126593;1274;98000;-74
2022/11/26 02:06:57;;;;;;;74.20;33.20;;;;;;;3.86;83.00;100773.19;126679;1280;99033;-75
2022/11/26 02:10:00;;;;;;;74.80;33.10;;;;;;;3.90;82.98;100772.25;126573;1288;98123;-76
2022/11/26 02:13:04;;;;;;;67.20;31.30;;;;;;;3.92;82.85;100774.53;126728;1277;98111;-75
2022/11/26 02:16:16;;;;;;;69.20;31.80;;;;;;;3.92;82.89;100777.34;126786;1280;99153;-74
2022/11/26 02:19:39;;;;;;;;;;;;;;;3.92;82.85;100779.33;126683;1277;98075;-74
2022/11/26 02:23:08;;;;;;;78.80;31.20;;;;;;;3.91;82.86;100776.92;126837;1286;98747;-74
2022/11/26 02:26:41;;;;;;;82.20;33.50;;;;;;;3.88;82.99;100772.86;126816;1282;98007;-75
2022/11/26 02:30:06;;;;;;;83.00;34.90;;;;;;;3.84;83.05;100777.15;126898;1289;99106;-72
2022/11/26 02:33:14;;;;;;;78.00;32.30;;;;;;;3.81;83.16;100778.93;126583;1285;99160;-74
2022/11/26 02:36:30;;;;;;;74.00;30.90;;;;;;;3.79;83.16;100772.77;126608;1282;98005;-74
2022/11/26 02:39:33;;;;;;;72.20;31.50;;;;;;;3.81;83.16;100769.41;126669;1277;99112;-74
2022/11/26 02:42:36;;;;;;;75.50;33.40;;;;;;;3.82;83.02;100769.19;126661;1280;99115;-74
2022/11/26 02:45:43;;;;;;;66.90;31.50;;;;;;;3.85;83.01;100779.05;126515;1282;98080;-75
2022/11/26 02:48:49;;;;;;;72.10;33.20;;;;;;;3.84;83.02;100778.92;126533;1280;98077;-74
2022/11/26 02:51:56;;;;;;;68.40;31.60;;;;;;;3.81;82.89;100777.52;126640;1282;98138;-75
2022/11/26 02:55:01;;;;;;;72.30;31.70;;;;;;;3.78;83.19;100781.59;126666;1288;99055;-76
2022/11/26 02:58:04;;;;;;;68.30;30.10;;;;;;;3.78;83.11;100783.91;126634;1288;98130;-74
2022/11/26 03:01:15;;;;;;;69.80;29.70;;;;;;;3.74;83.09;100782.56;126647;1277;98874;-75
2022/11/26 03:04:23;;;;;;;70.00;31.60;;;;;;;3.71;83.19;100784.30;126622;1288;98008;-75
2022/11/26 03:07:28;;;;;;;60.00;27.80;;;;;;;3.71;83.24;100790.29;126551;1277;98942;-73
2022/11/26 03:10:32;;;;;;;65.90;30.60;;;;;;;3.74;83.34;100786.20;126541;1286;99077;-75
2022/11/26 03:13:35;;;;;;;66.90;30.90;;;;;;;3.79;83.18;100785.21;126597;1282;98713;-74
2022/11/26 03:16:37;;;;;;;66.00;29.60;;;;;;;3.82;83.11;100786.63;126626;1288;99146;-73
2022/11/26 03:19:40;;;;;;;66.60;30.90;;;;;;;3.81;83.15;100792.01;126570;1282;98014;-73
2022/11/26 03:22:43;;;;;;;65.60;31.10;;;;;;;3.80;83.01;100797.30;126549;1280;98099;-73
2022/11/26 03:25:46;;;;;;;65.10;30.10;;;;;;;3.79;83.07;100802.86;126484;1283;98050;-73
2022/11/26 03:28:48;;;;;;;68.50;30.50;;;;;;;3.76;83.10;100796.98;126643;1288;99052;-73
2022/11/26 03:31:51;;;;;;;71.10;32.20;;;;;;;3.75;83.19;100794.59;126493;1284;98877;-74
2022/11/26 03:34:54;;;;;;;71.60;31.30;;;;;;;3.74;83.15;100802.10;126600;1288;98087;-74
2022/11/26 03:37:56;;;;;;;61.80;28.10;;;;;;;3.74;83.39;100798.73;126610;1282;98079;-73
2022/11/26 03:41:01;;;;;;;67.10;31.10;;;;;;;3.77;83.23;100803.70;126627;1279;111207;-75
2022/11/26 03:44:04;;;;;;;80.10;36.60;;;;;;;3.80;83.31;100804.16;126543;1282;111126;-74
2022/11/26 03:47:07;;;;;;;73.60;34.10;;;;;;;3.83;83.37;100803.13;126634;1281;99693;-75
2022/11/26 03:50:10;;;;;;;70.80;33.40;;;;;;;3.82;83.16;100806.15;126591;1286;99163;-73
2022/11/26 03:53:13;;;;;;;69.20;32.00;;;;;;;3.80;83.31;100808.91;126606;1286;111237;-75
2022/11/26 03:56:16;;;;;;;77.60;33.90;;;;;;;3.73;83.39;100808.10;126615;1277;98067;-73
2022/11/26 03:59:18;;;;;;;73.80;34.70;;;;;;;3.69;83.68;100807.50;126592;1280;98070;-75
2022/11/26 04:02:21;;;;;;;75.50;32.90;;;;;;;3.65;83.61;100812.49;126573;1284;99144;-74
2022/11/26 04:05:24;;;;;;;74.90;32.00;;;;;;;3.52;83.72;100821.40;126553;1279;98072;-75
2022/11/26 04:08:27;;;;;;;71.60;30.50;;;;;;;3.42;83.91;100831.48;126620;1288;99256;-74
2022/11/26 04:11:29;;;;;;;77.90;34.30;;;;;;;3.39;84.12;100833.23;126665;1280;99144;-74
2022/11/26 04:14:32;;;;;;;72.60;33.40;;;;;;;3.42;84.16;100826.90;126554;1281;97999;-77
2022/11/26 04:17:35;;;;;;;69.10;32.70;;;;;;;3.45;84.06;100826.95;126680;1282;99077;-75
2022/11/26 04:20:38;;;;;;;76.70;34.50;;;;;;;3.50;83.85;100829.07;126787;1280;98507;-72
2022/11/26 04:23:40;;;;;;;76.60;35.20;;;;;;;3.48;83.79;100834.13;126739;1280;106726;-75
2022/11/26 04:26:43;;;;;;;73.90;33.60;;;;;;;3.48;83.82;100831.48;126576;1288;99590;-75
2022/11/26 04:29:45;;;;;;;77.30;32.40;;;;;;;3.50;83.92;100836.77;126439;1287;98009;-74
2022/11/26 04:32:48;;;;;;;82.70;35.60;;;;;;;3.50;83.82;100845.77;126562;1279;99170;-75
2022/11/26 04:35:51;;;;;;;75.60;30.90;;;;;;;3.39;83.88;100848.38;126608;1292;98008;-74
2022/11/26 04:38:53;;;;;;;80.00;34.60;;;;;;;3.38;84.14;100845.30;126751;1278;98023;-72
2022/11/26 04:41:56;;;;;;;76.90;35.40;;;;;;;3.42;84.09;100840.83;126613;1274;98754;-74
2022/11/26 04:44:59;;;;;;;82.50;36.20;;;;;;;3.47;84.07;100838.88;126700;1284;98752;-74
2022/11/26 04:48:01;;;;;;;84.40;36.20;;;;;;;3.52;83.94;100844.08;126644;1281;97978;-74
2022/11/26 04:51:04;;;;;;;94.00;41.40;;;;;;;3.51;83.96;100844.63;126631;1286;99144;-74
2022/11/26 04:54:07;;;;;;;94.70;39.80;;;;;;;3.50;84.01;100849.09;126730;1282;98495;-73
2022/11/26 04:57:10;;;;;;;94.90;40.00;;;;;;;3.49;84.12;100852.17;126860;1279;99161;-75
2022/11/26 05:00:16;;;;;;;95.70;39.90;;;;;;;3.37;84.05;100858.36;126677;1285;99188;-74
2022/11/26 05:03:18;;;;;;;85.60;36.50;;;;;;;3.24;84.49;100870.20;126674;1288;99216;-74
2022/11/26 05:06:21;;;;;;;92.50;39.70;;;;;;;3.13;84.66;100875.73;126702;1288;99140;-73
2022/11/26 05:09:24;;;;;;;86.50;38.60;;;;;;;3.08;84.84;100878.50;126649;1278;98007;-72
2022/11/26 05:12:27;;;;;;;85.10;38.80;;;;;;;3.07;84.98;100874.36;126645;1284;97976;-71
2022/11/26 05:15:29;;;;;;;89.40;38.80;;;;;;;3.09;85.13;100874.25;126576;1277;99266;-72
2022/11/26 05:18:32;;;;;;;87.60;38.80;;;;;;;3.08;85.00;100880.43;126664;1278;98492;-72
2022/11/26 05:21:35;;;;;;;87.40;36.20;;;;;;;3.03;85.39;100879.34;126627;1280;98090;-74
2022/11/26 05:24:37;;;;;;;87.20;36.70;;;;;;;2.97;85.34;100880.05;126545;1294;99154;-73
2022/11/26 05:27:40;;;;;;;79.20;33.60;;;;;;;2.93;85.55;100880.77;126632;1285;99024;-75
2022/11/26 05:30:42;;;;;;;88.90;37.40;;;;;;;3.01;85.58;100876.98;126539;1296;98861;-72
2022/11/26 05:33:45;;;;;;;86.00;39.40;;;;;;;3.14;85.71;100880.64;126543;1286;98077;-75
2022/11/26 05:36:48;;;;;;;94.40;39.10;;;;;;;3.24;85.23;100884.23;126636;1290;98091;-75
2022/11/26 05:39:50;;;;;;;94.30;40.10;;;;;;;3.25;85.23;100896.30;126615;1293;98794;-74
2022/11/26 05:42:53;;;;;;;103.20;43.50;;;;;;;3.12;85.52;100904.83;126722;1277;99656;-74
2022/11/26 05:45:56;;;;;;;93.80;40.20;;;;;;;2.95;85.57;100914.40;126482;1294;99175;-79
2022/11/26 05:48:58;;;;;;;96.40;38.90;;;;;;;2.88;85.80;100916.93;126491;1297;99140;-73
2022/11/26 05:52:01;;;;;;;100.70;39.30;;;;;;;2.87;85.80;100919.25;126678;1296;98004;-73
2022/11/26 05:55:05;;;;;;;97.50;39.00;;;;;;;2.91;86.00;100916.77;126710;1297;111275;-72
2022/11/26 05:58:08;;;;;;;86.00;35.70;;;;;;;2.97;85.95;100918.34;126820;1296;111227;-76
2022/11/26 06:01:11;;;;;;;153.70;71.10;;;;;;;3.07;85.67;100925.31;126725;1301;111157;-72
2022/11/26 06:04:14;;;;;;;133.40;58.80;;;;;;;3.09;85.73;100926.08;126792;1291;99071;-75
2022/11/26 06:07:16;;;;;;;97.60;42.50;;;;;;;3.07;85.72;100931.80;126919;1301;98758;-76
2022/11/26 06:10:19;;;;;;;97.50;40.80;;;;;;;3.02;86.24;100928.59;126899;1291;98857;-75
2022/11/26 06:13:22;;;;;;;89.10;38.30;;;;;;;3.01;86.21;100929.00;126775;1273;98133;-70
2022/11/26 06:16:25;;;;;;;92.00;37.70;;;;;;;3.01;86.06;100939.39;126771;1282;98011;-72
2022/11/26 06:19:28;;;;;;;94.90;37.50;;;;;;;2.96;85.90;100940.52;126605;1288;99039;-79
2022/11/26 06:22:34;;;;;;;93.30;35.60;;;;;;;2.95;86.20;100946.23;126605;1301;99055;-76
2022/11/26 06:25:39;;;;;;;87.70;35.00;;;;;;;2.95;86.30;100952.20;126693;1296;111139;-73
2022/11/26 06:28:42;;;;;;;94.70;36.60;;;;;;;2.86;86.27;100952.52;126602;1295;111281;-78
2022/11/26 06:31:44;;;;;;;98.80;36.40;;;;;;;2.79;86.63;100952.21;126554;1293;99027;-74
2022/11/26 06:34:47;;;;;;;94.60;36.90;;;;;;;2.78;86.33;100957.23;126729;1296;98742;-73
2022/11/26 06:37:50;;;;;;;94.20;37.20;;;;;;;2.79;86.48;100963.30;126865;1295;99236;-74
2022/11/26 06:40:58;;;;;;;86.80;36.20;;;;;;;2.74;86.51;100966.21;126901;1304;97973;-74
2022/11/26 06:44:01;;;;;;;85.90;34.10;;;;;;;2.71;86.56;100967.09;126889;1296;111259;-74
2022/11/26 06:47:04;;;;;;;85.30;33.00;;;;;;;2.72;86.75;100968.20;126642;1276;97966;-73
2022/11/26 06:50:09;;;;;;;75.50;29.70;;;;;;;2.68;87.06;100966.72;126604;1294;98787;-72
2022/11/26 06:53:12;;;;;;;84.00;32.40;;;;;;;2.65;87.12;100963.90;126629;1293;111023;-74
2022/11/26 06:56:16;;;;;;;78.90;30.10;;;;;;;2.67;86.94;100963.77;126567;1281;98543;-74
2022/11/26 06:59:18;;;;;;;71.10;28.60;;;;;;;2.77;86.83;100973.42;126614;1296;111210;-74
2022/11/26 07:02:21;;;;;;;67.20;28.80;;;;;;;2.76;87.14;100978.55;126668;1296;98788;-74
2022/11/26 07:05:24;;;;;;;68.00;26.70;;;;;;;2.64;87.16;100980.99;126586;1287;99136;-73
2022/11/26 07:08:26;;;;;;;70.80;27.60;;;;;;;2.58;87.20;100983.27;126597;1296;98019;-74
2022/11/26 07:11:29;;;;;;;62.80;26.70;;;;;;;2.58;87.13;100984.85;126848;1289;99150;-73
2022/11/26 07:14:32;;;;;;;57.60;23.80;;;;;;;2.56;87.52;100979.30;126662;1284;99496;-74
2022/11/26 07:17:35;;;;;;;61.30;25.90;;;;;;;2.57;87.45;100984.69;126717;1286;98758;-74
2022/11/26 07:20:38;;;;;;;60.60;26.10;;;;;;;2.65;87.54;100983.39;126704;1281;98075;-72
2022/11/26 07:23:40;;;;;;;57.30;25.60;;;;;;;2.72;87.17;100988.77;126610;1281;98113;-75
2022/11/26 07:26:43;;;;;;;66.00;27.20;;;;;;;2.68;87.05;100994.65;126723;1280;98076;-74
2022/11/26 07:29:46;;;;;;;66.60;27.40;;;;;;;2.61;87.25;100996.60;126742;1288;98089;-74
2022/11/26 07:32:49;;;;;;;69.90;27.60;;;;;;;2.54;87.27;101006.10;126743;1286;98010;-74
2022/11/26 07:35:57;;;;;;;67.90;29.00;;;;;;;2.48;87.22;101013.83;126603;1294;105826;-74
2022/11/26 07:39:02;;;;;;;55.60;23.10;;;;;;;2.44;87.35;101016.10;126599;1293;107519;-75
2022/11/26 07:42:05;;;;;;;65.00;27.40;;;;;;;2.50;87.40;101017.91;126691;1295;107527;-73
2022/11/26 07:45:09;;;;;;;68.30;27.00;;;;;;;2.62;87.36;101022.88;126683;1282;99136;-74
2022/11/26 07:48:12;;;;;;;66.20;25.10;;;;;;;2.66;87.08;101018.30;126675;1288;107426;-74
2022/11/26 07:51:18;;;;;;;63.40;25.90;;;;;;;2.63;86.97;101020.38;126618;1286;99216;-73
2022/11/26 07:54:20;;;;;;;76.40;28.50;;;;;;;2.63;87.13;101023.34;126664;1281;105928;-74
2022/11/26 07:57:24;;;;;;;75.30;27.70;;;;;;;2.58;86.92;101021.52;126582;1294;98755;-75
2022/11/26 08:00:26;;;;;;;74.70;28.20;;;;;;;2.60;87.22;101026.86;126661;1289;98854;-74
2022/11/26 08:03:29;;;;;;;87.40;31.10;;;;;;;2.62;87.03;101029.02;126653;1287;99023;-74
2022/11/26 08:06:33;;;;;;;74.90;30.00;;;;;;;2.65;87.08;101028.36;126563;1295;98079;-73
2022/11/26 08:09:36;;;;;;;72.20;28.30;;;;;;;2.73;87.23;101036.00;126646;1295;105904;-74
2022/11/26 08:12:39;;;;;;;70.70;27.80;;;;;;;2.83;87.05;101037.38;126658;1291;99674;-74
2022/11/26 08:15:41;;;;;;;55.10;24.40;;;;;;;2.88;86.80;101038.89;126664;1288;98930;-74
2022/11/26 08:18:44;;;;;;;56.00;23.70;;;;;;;2.89;86.50;101042.00;126785;1294;99163;-74
2022/11/26 08:21:47;;;;;;;53.60;23.00;;;;;;;2.81;86.47;101042.41;126624;1297;98066;-74
2022/11/26 08:24:50;;;;;;;50.20;20.40;;;;;;;2.74;86.62;101040.52;126579;1292;98073;-74
2022/11/26 08:27:52;;;;;;;39.20;16.90;;;;;;;2.71;86.36;101044.70;126668;1275;98073;-75
2022/11/26 08:31:01;;;;;;;41.00;18.10;;;;;;;2.70;86.49;101052.29;126760;1297;98784;-72
2022/11/26 08:34:04;;;;;;;46.10;20.50;;;;;;;2.66;86.35;101054.30;126646;1294;107545;-73
2022/11/26 08:37:07;;;;;;;49.00;20.00;;;;;;;2.52;86.34;101060.98;126635;1295;99163;-74
2022/11/26 08:40:11;;;;;;;38.40;17.30;;;;;;;2.42;86.57;101072.27;126588;1295;98028;-73
2022/11/26 08:43:13;;;;;;;38.90;18.30;;;;;;;2.39;86.50;101077.31;126637;1296;107434;-74
2022/11/26 08:46:16;;;;;;;39.90;18.60;;;;;;;2.37;86.36;101083.36;126703;1282;98078;-74
2022/11/26 08:49:19;;;;;;;39.70;18.10;;;;;;;2.24;86.46;101087.40;126618;1287;99154;-74
2022/11/26 08:52:22;;;;;;;40.10;18.50;;;;;;;2.17;86.74;101087.23;126692;1281;98521;-74
2022/11/26 08:55:24;;;;;;;37.90;18.50;;;;;;;2.16;86.75;101096.24;126694;1291;98095;-74
2022/11/26 08:58:27;;;;;;;37.00;17.30;;;;;;;2.16;86.69;101090.27;126565;1289;98073;-74
2022/11/26 09:01:32;;;;;;;61.00;31.70;;;;;;;2.16;86.65;101090.63;126570;1295;97985;-73
2022/11/26 09:04:35;;;;;;;57.00;28.40;;;;;;;2.18;86.63;101089.33;126669;1301;107620;-75
2022/11/26 09:07:37;;;;;;;63.60;34.20;;;;;;;2.21;86.16;101094.40;126743;1296;98400;-75
2022/11/26 09:10:40;;;;;;;43.80;19.40;;;;;;;2.18;86.36;101091.02;126680;1297;99059;-75
2022/11/26 09:13:43;;;;;;;45.50;19.80;;;;;;;2.25;85.90;101097.91;126594;1301;99012;-74
2022/11/26 09:16:46;;;;;;;42.20;19.50;;;;;;;2.22;85.81;101106.83;126560;1274;98430;-73
2022/11/26 09:19:49;;;;;;;55.60;28.80;;;;;;;2.12;85.50;101105.39;126687;1294;99147;-74
2022/11/26 09:22:51;;;;;;;50.70;23.20;;;;;;;2.10;85.64;101107.26;126623;1282;98744;-75
2022/11/26 09:25:54;;;;;;;53.00;25.90;;;;;;;2.08;85.46;101111.71;126739;1289;98752;-74
2022/11/26 09:28:57;;;;;;;62.10;30.40;;;;;;;2.07;85.44;101110.75;126676;1294;98073;-74
2022/11/26 09:32:01;;;;;;;63.70;33.10;;;;;;;2.03;85.47;101111.14;126752;1300;99195;-73
2022/11/26 09:35:04;;;;;;;70.30;38.40;;;;;;;2.03;85.50;101117.77;126732;1276;98086;-75
2022/11/26 09:38:07;;;;;;;58.90;28.30;;;;;;;2.05;85.70;101118.94;126793;1291;98433;-74
2022/11/26 09:41:23;;;;;;;87.60;41.70;;;;;;;2.05;85.54;101121.58;126602;1278;99040;-74
2022/11/26 09:44:53;;;;;;;53.60;25.30;;;;;;;2.12;85.61;101123.10;126551;1295;107518;-74
2022/11/26 09:47:56;;;;;;;116.60;55.80;;;;;;;2.18;85.07;101117.35;126708;1301;107602;-74
2022/11/26 09:51:06;;;;;;;250.30;150.20;;;;;;;2.14;85.05;101121.59;126740;1294;107554;-73
2022/11/26 09:54:15;;;;;;;137.20;75.60;;;;;;;2.15;85.28;101122.96;126690;1295;107549;-74
2022/11/26 09:57:28;;;;;;;75.40;35.60;;;;;;;2.21;85.13;101128.27;126673;1294;106613;-74
2022/11/26 10:00:36;;;;;;;73.50;33.20;;;;;;;2.15;84.72;101133.16;126550;1294;107376;-74
2022/11/26 10:03:38;;;;;;;73.50;38.00;;;;;;;2.04;84.49;101143.36;126648;1295;107591;-74
2022/11/26 10:06:50;;;;;;;77.80;34.40;;;;;;;2.05;84.98;101145.42;126566;1294;98758;-74
2022/11/26 10:10:01;;;;;;;63.90;28.50;;;;;;;2.12;85.01;101153.66;126711;1294;107665;-74
2022/11/26 10:13:16;;;;;;;59.30;25.40;;;;;;;2.17;84.80;101149.70;126798;1294;107595;-73
2022/11/26 10:16:27;;;;;;;63.10;29.70;;;;;;;2.24;84.85;101148.85;126706;1293;107662;-74
2022/11/26 10:19:35;;;;;;;69.10;32.00;;;;;;;2.28;84.51;101151.08;126753;1294;107501;-74
2022/11/26 10:22:49;;;;;;;62.00;29.50;;;;;;;2.26;83.81;101147.66;126677;1296;107504;-73
2022/11/26 10:25:57;;;;;;;63.00;28.20;;;;;;;2.14;83.80;101151.10;126705;1295;107606;-73
2022/11/26 10:29:15;;;;;;;69.60;29.70;;;;;;;2.02;84.07;101154.52;126730;1295;107680;-73
2022/11/26 10:32:23;;;;;;;75.90;34.00;;;;;;;1.87;84.27;101152.41;126723;1294;107611;-74
2022/11/26 10:35:29;;;;;;;87.00;35.80;;;;;;;1.82;84.76;101148.65;126743;1295;107603;-74
2022/11/26 10:38:32;;;;;;;70.10;30.80;;;;;;;1.87;85.09;101149.13;126627;1289;107520;-74
2022/11/26 10:41:36;;;;;;;71.00;28.70;;;;;;;1.87;84.58;101152.63;126660;1295;98476;-74
2022/11/26 10:44:40;;;;;;;76.10;33.10;;;;;;;1.77;84.62;101148.19;126743;1295;107641;-73
2022/11/26 10:47:43;;;;;;;73.80;31.60;;;;;;;1.74;84.96;101152.02;126633;1294;107694;-74
2022/11/26 10:50:57;;;;;;;83.50;35.90;;;;;;;1.84;85.07;101153.08;126554;1292;99153;-73
2022/11/26 10:54:03;;;;;;;81.10;34.10;;;;;;;1.90;85.00;101154.20;126583;1294;107550;-73
2022/11/26 10:57:13;;;;;;;87.80;38.70;;;;;;;1.90;84.89;101155.43;126668;1292;107645;-74
2022/11/26 11:00:29;;;;;;;63.60;27.90;;;;;;;1.82;84.78;101160.91;126567;1294;105743;-73
2022/11/26 11:03:35;;;;;;;71.00;28.20;;;;;;;1.67;84.46;101158.14;126636;1289;107432;-73
2022/11/26 11:06:42;;;;;;;62.20;25.20;;;;;;;1.63;84.91;101158.52;126607;1295;107576;-74
2022/11/26 11:09:45;;;;;;;59.00;24.90;;;;;;;1.75;85.01;101159.17;126863;1290;107580;-74
2022/11/26 11:13:00;;;;;;;72.60;29.30;;;;;;;1.83;84.88;101165.61;126921;1294;107459;-74
2022/11/26 11:16:03;;;;;;;71.20;28.20;;;;;;;1.88;84.98;101165.36;126812;1289;107627;-75
2022/11/26 11:19:23;;;;;;;71.00;29.60;;;;;;;1.95;84.98;101170.83;126609;1295;106614;-74
2022/11/26 11:22:27;;;;;;;72.50;31.10;;;;;;;1.92;84.90;101177.45;126739;1294;107609;-75
2022/11/26 11:25:31;;;;;;;79.80;32.80;;;;;;;1.93;84.93;101179.33;126746;1294;107414;-74
2022/11/26 11:28:41;;;;;;;81.30;33.40;;;;;;;1.98;84.76;101179.98;126587;1293;108002;-73
2022/11/26 11:31:46;;;;;;;79.10;32.00;;;;;;;2.00;84.71;101177.79;126628;1294;107600;-74
2022/11/26 11:34:48;;;;;;;75.00;30.60;;;;;;;1.96;84.52;101179.89;126601;1295;107596;-75
2022/11/26 11:37:53;;;;;;;71.10;29.50;;;;;;;1.94;84.85;101179.65;126682;1288;98598;-74
2022/11/26 11:40:56;;;;;;;81.10;34.70;;;;;;;1.99;84.78;101176.57;126954;1294;107572;-74
2022/11/26 11:44:19;;;;;;;82.50;34.80;;;;;;;2.03;84.80;101175.53;126647;1295;107659;-74
2022/11/26 11:47:35;;;;;;;87.80;36.40;;;;;;;1.98;84.37;101172.79;126655;1302;107516;-76
2022/11/26 11:50:43;;;;;;;83.40;37.40;;;;;;;1.97;84.82;101178.63;126733;1291;107445;-74
2022/11/26 11:54:01;;;;;;;86.60;36.60;;;;;;;1.99;84.73;101179.75;126660;1295;107515;-73
2022/11/26 11:57:14;;;;;;;83.80;36.30;;;;;;;1.90;84.63;101189.29;126706;1294;106395;-74
2022/11/26 12:00:19;;;;;;;88.50;34.60;;;;;;;1.88;84.80;101192.04;126590;1295;106517;-74
2022/11/26 12:03:44;;;;;;;88.20;36.00;;;;;;;1.89;84.86;101199.51;126640;1294;106512;-74
2022/11/26 12:07:02;;;;;;;71.60;31.30;;;;;;;1.87;84.84;101204.03;126714;1294;107500;-73
2022/11/26 12:10:20;;;;;;;86.60;34.60;;;;;;;1.91;84.67;101208.91;126606;1295;107585;-75
2022/11/26 12:13:25;;;;;;;67.60;30.60;;;;;;;1.85;84.48;101212.52;126709;1294;107482;-74
2022/11/26 12:16:36;;;;;;;66.00;30.20;;;;;;;1.75;84.54;101212.47;126720;1294;107599;-74
2022/11/26 12:19:45;;;;;;;69.30;31.10;;;;;;;1.74;84.27;101210.96;126734;1295;107605;-74
2022/11/26 12:22:56;;;;;;;67.50;32.10;;;;;;;1.65;84.31;101212.29;126903;1287;107496;-74
2022/11/26 12:26:09;;;;;;;80.00;35.80;;;;;;;1.54;84.27;101215.73;126756;1294;107460;-75
2022/11/26 12:29:20;;;;;;;76.10;30.60;;;;;;;1.45;84.22;101215.82;126933;1287;107498;-73
2022/11/26 12:32:31;;;;;;;69.20;29.10;;;;;;;1.42;84.38;101212.77;126715;1295;107390;-74
2022/11/26 12:35:38;;;;;;;65.50;27.80;;;;;;;1.43;84.42;101215.76;126588;1294;107502;-74
2022/11/26 12:38:48;;;;;;;73.20;31.00;;;;;;;1.47;84.57;101221.85;126654;1289;106599;-74
2022/11/26 12:41:56;;;;;;;76.60;33.90;;;;;;;1.47;84.32;101219.55;126622;1291;107469;-74
2022/11/26 12:45:12;;;;;;;78.70;33.20;;;;;;;1.38;84.54;101218.23;126620;1291;106641;-73
2022/11/26 12:48:27;;;;;;;82.40;34.30;;;;;;;1.36;84.72;101225.17;126661;1294;107522;-74
2022/11/26 12:51:37;;;;;;;72.70;31.10;;;;;;;1.38;84.54;101230.16;126577;1287;107548;-74
2022/11/26 12:54:49;;;;;;;73.90;31.40;;;;;;;1.31;84.53;101231.70;126573;1295;107533;-75
2022/11/26 12:57:54;;;;;;;77.40;30.10;;;;;;;1.22;84.52;101238.45;126576;1295;107568;-73
2022/11/26 13:00:58;;;;;;;71.60;29.90;;;;;;;1.23;84.72;101234.88;126720;1288;107585;-75
2022/11/26 13:04:02;;;;;;;75.00;31.30;;;;;;;1.22;84.72;101233.16;126653;1289;107610;-74
2022/11/26 13:07:17;;;;;;;76.40;32.70;;;;;;;1.22;84.70;101232.11;126646;1294;107598;-73
2022/11/26 13:10:32;;;;;;;82.70;33.20;;;;;;;1.21;84.69;101238.13;126583;1294;107621;-74
2022/11/26 13:13:43;;;;;;;104.80;44.20;;;;;;;1.09;84.82;101242.52;126523;1291;107508;-74
2022/11/26 13:16:54;;;;;;;94.60;37.10;;;;;;;1.03;85.06;101245.95;126592;1294;109290;-74
2022/11/26 13:20:08;;;;;;;77.60;30.20;;;;;;;0.97;85.03;101246.71;126596;1294;107635;-75
2022/11/26 13:23:27;;;;;;;76.90;30.00;;;;;;;0.94;85.03;101249.30;126478;1294;141499;-73
2022/11/26 13:26:44;;;;;;;74.90;30.90;;;;;;;0.98;84.97;101253.83;126583;1294;107529;-73
2022/11/26 13:30:11;;;;;;;83.20;34.00;;;;;;;1.00;85.26;101254.63;126653;1296;107350;-74
2022/11/26 13:33:39;;;;;;;66.50;29.30;;;;;;;1.00;85.21;101253.25;126667;1295;107600;-75
2022/11/26 13:37:00;;;;;;;72.70;31.50;;;;;;;1.02;85.20;101259.98;126707;1294;107570;-74
2022/11/26 13:40:24;;;;;;;69.40;29.40;;;;;;;1.04;85.16;101269.03;126665;1291;107695;-74
2022/11/26 13:43:53;;;;;;;76.00;31.60;;;;;;;0.98;85.17;101279.94;126879;1295;106575;-74
2022/11/26 13:46:59;;;;;;;75.90;28.80;;;;;;;0.84;85.17;101283.55;126663;1295;106366;-74
2022/11/26 13:50:06;;;;;;;78.40;29.40;;;;;;;0.76;85.26;101288.60;126593;1295;106909;-75
2022/11/26 13:53:18;;;;;;;73.50;29.40;;;;;;;0.71;85.40;101290.06;126662;1295;107641;-75
2022/11/26 13:56:24;;;;;;;79.00;31.40;;;;;;;0.69;85.56;101289.20;126628;1294;107457;-74
2022/11/26 13:59:28;;;;;;;82.90;34.80;;;;;;;0.69;85.58;101293.25;126605;1295;107626;-72
2022/11/26 14:02:43;;;;;;;80.40;32.70;;;;;;;0.61;85.58;101291.83;126618;1287;107667;-73